Flight Track Log - Related Links

Times and Time Zones

All times are in EDT time to prevent confusion due to time zone crossing. See the SWA378 flight status page for this flight to view local times or setup timezone preferences in your user account.

Time Position Orientation Groundspeed Altitude Reporting Facility
EDT Latitude Longitude Course Direction KTS MPH feet Rate Location/Type
Thu 01:27:04 PM 33.8617 -118.5128 191° South 255 293 4,200  Level Los Angeles Center
Thu 01:28:06 PM 33.7633 -118.5183 183° South 283 326 7,700 3,097 Climbing Los Angeles Center
Thu 01:29:08 PM 33.6961 -118.4772 153° Southeast 308 354 10,600 2,544 Climbing Los Angeles Center
Thu 01:30:11 PM 33.6561 -118.3761 115° Southeast 344 396 13,000 2,544 Climbing Los Angeles Center
Thu 01:31:00 PM 33.6333 -118.2271 90° East  Level FlightAware Approximate
Thu 01:31:13 PM 33.6450 -118.2369 95° East 363 418 15,900  Level Los Angeles Center
Thu 01:32:15 PM 33.6439 -118.1058 91° East 395 455 17,800 2,081 Climbing Los Angeles Center
Thu 01:33:17 PM 33.6439 -117.9681 90° East 412 474 20,200 2,226 Climbing Los Angeles Center
Thu 01:34:19 PM 33.6433 -117.8264 90° East 424 488 22,400 2,032 Climbing Los Angeles Center
Thu 01:35:21 PM 33.6428 -117.6794 90° East 436 502 24,400 1,839 Climbing Los Angeles Center
Thu 01:36:23 PM 33.6419 -117.5294 90° East 447 514 26,200 1,548 Climbing Los Angeles Center
Thu 01:37:25 PM 33.6403 -117.3461 91° East 457 526 27,600 1,296 Climbing Los Angeles Center
Thu 01:38:28 PM 33.6392 -117.1875 90° East 473 544 28,900 1,440 Climbing Los Angeles Center
Thu 01:39:30 PM 33.6383 -117.0267 90° East 485 558 30,600 1,790 Climbing Los Angeles Center
Thu 01:40:32 PM 33.6372 -116.8683 90° East 478 550 32,600 1,597 Climbing Los Angeles Center
Thu 01:41:34 PM 33.6522 -116.7100 83° East 471 542 33,900 1,161 Climbing Los Angeles Center
Thu 01:42:36 PM 33.6833 -116.5261 78° East 468 539 35,000 532 Climbing Los Angeles Center
Thu 01:43:38 PM 33.7033 -116.4036 79° East 468 539 35,000  Level Los Angeles Center
Thu 01:44:40 PM 33.7344 -116.2189 79° East 469 540 35,000  Level Los Angeles Center
Thu 01:45:42 PM 33.7592 -116.0633 79° East 471 542 35,000  Level Los Angeles Center
Thu 01:46:45 PM 33.7847 -115.9117 78° East 466 536 35,000  Level Los Angeles Center
Thu 01:47:47 PM 33.8097 -115.7603 79° East 463 533 35,000  Level Los Angeles Center
Thu 01:48:49 PM 33.8392 -115.5753 79° East 468 539 35,000  Level Los Angeles Center
Thu 01:49:51 PM 33.8625 -115.4197 80° East 471 542 35,000  Level Los Angeles Center
Thu 01:50:53 PM 33.8869 -115.2650 79° East 471 542 35,000 339 Level Los Angeles Center
Thu 01:51:55 PM 33.9125 -115.1100 79° East 472 543 35,700 968 Climbing Los Angeles Center
Thu 01:52:57 PM 33.9356 -114.9569 80° East 466 536 37,000 629 Climbing Los Angeles Center
Thu 01:53:59 PM 33.9606 -114.8047 79° East 466 536 37,000  Level Los Angeles Center
Thu 01:55:01 PM 33.9889 -114.6228 79° East 462 532 37,000  Level Los Angeles Center
Thu 01:56:04 PM 34.0114 -114.4689 80° East 465 535 37,000  Level Los Angeles Center
Thu 01:57:06 PM 34.0350 -114.3156 79° East 466 536 37,000  Level Los Angeles Center
Thu 01:58:17 PM 34.0625 -114.1378 79° East 468 539 37,000  Level Albuquerque Center
Thu 01:59:19 PM 34.0850 -113.9831 80° East 469 540 37,000  Level Albuquerque Center
Thu 02:00:21 PM 34.1067 -113.8283 80° East 470 541 37,000  Level Albuquerque Center
Thu 02:01:23 PM 34.1333 -113.6422 80° East 470 541 37,000  Level Albuquerque Center
Thu 02:02:25 PM 34.1561 -113.4856 80° East 473 544 37,000  Level Albuquerque Center
Thu 02:03:27 PM 34.1789 -113.3300 80° East 471 542 37,000  Level Albuquerque Center
Thu 02:04:29 PM 34.2008 -113.1753 80° East 469 540 37,000  Level Albuquerque Center
Thu 02:05:31 PM 34.2214 -113.0206 81° East 468 539 37,000  Level Albuquerque Center
Thu 02:06:34 PM 34.2431 -112.8658 80° East 468 539 37,000  Level Albuquerque Center
Thu 02:07:36 PM 34.2678 -112.6806 81° East 465 535 37,000  Level Albuquerque Center
Thu 02:08:38 PM 34.2900 -112.5247 80° East 470 541 37,000  Level Albuquerque Center
Thu 02:09:40 PM 34.3097 -112.3697 81° East 467 537 37,000  Level Albuquerque Center
Thu 02:10:42 PM 34.3303 -112.2144 81° East 466 536 37,000  Level Albuquerque Center
Thu 02:11:44 PM 34.3511 -112.0589 81° East 466 536 37,000  Level Albuquerque Center
Thu 02:12:46 PM 34.3711 -111.9022 81° East 467 537 37,000  Level Albuquerque Center
Thu 02:13:48 PM 34.3911 -111.7453 81° East 468 539 37,000  Level Albuquerque Center
Thu 02:14:50 PM 34.4156 -111.5556 81° East 471 542 37,000  Level Albuquerque Center
Thu 02:15:52 PM 34.4358 -111.3964 81° East 474 545 37,000  Level Albuquerque Center
Thu 02:16:54 PM 34.4550 -111.2375 82° East 476 548 37,000  Level Albuquerque Center
Thu 02:17:56 PM 34.4753 -111.0792 81° East 476 548 37,000  Level Albuquerque Center
Thu 02:18:57 PM 34.4933 -110.9208 82° East 475 547 37,000  Level Albuquerque Center
Thu 02:19:59 PM 34.5128 -110.7617 82° East 476 548 37,000  Level Albuquerque Center
Thu 02:21:01 PM 34.5325 -110.6036 81° East 475 547 37,000  Level Albuquerque Center
Thu 02:22:03 PM 34.5533 -110.4261 82° East 472 543 37,000  Level Albuquerque Center
Thu 02:23:05 PM 34.5742 -110.2503 82° East 472 543 37,000  Level Albuquerque Center
Thu 02:24:07 PM 34.5917 -110.0989 82° East 473 544 37,000  Level Albuquerque Center
Thu 02:25:09 PM 34.6081 -109.9461 83° East 477 549 37,000  Level Albuquerque Center
Thu 02:26:11 PM 34.6269 -109.7683 83° East 477 549 37,000  Level Albuquerque Center
Thu 02:27:12 PM 34.6450 -109.6169 82° East 475 547 37,000  Level Albuquerque Center
Thu 02:28:14 PM 34.6644 -109.4389 82° East 477 549 37,000  Level Albuquerque Center
Thu 02:29:16 PM 34.6800 -109.2872 83° East 475 547 37,000  Level Albuquerque Center
Thu 02:30:18 PM 34.6994 -109.1117 82° East 473 544 37,000  Level Albuquerque Center
Thu 02:31:20 PM 34.7150 -108.9589 83° East 476 548 37,000  Level Albuquerque Center
Thu 02:32:21 PM 34.7350 -108.7811 82° East 476 548 37,000  Level Albuquerque Center
Thu 02:33:23 PM 34.7489 -108.6278 84° East 478 550 37,000  Level Albuquerque Center
Thu 02:34:25 PM 34.7661 -108.4561 83° East 477 549 37,000  Level Albuquerque Center
Thu 02:35:27 PM 34.7833 -108.2964 82° East 478 550 37,000  Level Albuquerque Center
Thu 02:36:28 PM 34.7981 -108.1358 84° East 479 551 37,000  Level Albuquerque Center
Thu 02:37:30 PM 34.8133 -107.9756 83° East 478 550 37,000  Level Albuquerque Center
Thu 02:38:32 PM 34.8289 -107.8169 83° East 474 545 37,000  Level Albuquerque Center
Thu 02:39:34 PM 34.8444 -107.6581 83° East 473 544 37,000  Level Albuquerque Center
Thu 02:40:35 PM 34.8581 -107.4994 84° East 473 544 37,000  Level Albuquerque Center
Thu 02:41:37 PM 34.8753 -107.3114 84° East 468 539 37,000  Level Albuquerque Center
Thu 02:42:39 PM 34.8906 -107.1569 83° East 470 541 37,000  Level Albuquerque Center
Thu 02:43:41 PM 34.9056 -106.9814 84° East 467 537 37,000  Level Albuquerque Center
Thu 02:44:43 PM 34.9169 -106.8300 85° East 468 539 37,000  Level Albuquerque Center
Thu 02:45:44 PM 34.9319 -106.6558 84° East 465 535 37,000  Level Albuquerque Center
Thu 02:46:46 PM 34.9447 -106.4969 84° East 483 556 37,000  Level Albuquerque Center
Thu 02:47:48 PM 34.9569 -106.3364 84° East 482 555 37,000  Level Albuquerque Center
Thu 02:48:00 PM 34.9605 -106.3086 84° East  Level FlightAware Approximate
Thu 02:48:50 PM 34.9700 -106.1758 84° East 480 552 37,000  Level Albuquerque Center
Thu 02:49:51 PM 34.9833 -106.0144 84° East 480 552 37,000  Level Albuquerque Center
Thu 02:50:53 PM 34.9978 -105.8481 84° East 480 552 37,000  Level Albuquerque Center
Thu 02:51:55 PM 35.0106 -105.6561 85° East 483 556 37,000  Level Albuquerque Center
Thu 02:52:57 PM 35.0236 -105.4906 84° East 486 559 37,000  Level Albuquerque Center
Thu 02:53:58 PM 35.0367 -105.3250 84° East 487 560 37,000  Level Albuquerque Center
Thu 02:55:00 PM 35.0486 -105.1608 85° East 484 557 37,000  Level Albuquerque Center
Thu 02:56:02 PM 35.0608 -104.9981 85° East 480 552 37,000  Level Albuquerque Center
Thu 02:57:04 PM 35.0722 -104.8361 85° East 478 550 37,000  Level Albuquerque Center
Thu 02:58:05 PM 35.0831 -104.6744 85° East 477 549 37,000  Level Albuquerque Center
Thu 02:59:07 PM 35.0961 -104.5164 84° East 470 541 37,000  Level Albuquerque Center
Thu 03:00:09 PM 35.1064 -104.3567 85° East 472 543 37,000  Level Albuquerque Center
Thu 03:01:11 PM 35.1183 -104.1656 86° East 471 542 37,000  Level Albuquerque Center
Thu 03:02:13 PM 35.1283 -104.0072 86° East 471 542 37,000  Level Albuquerque Center
Thu 03:03:14 PM 35.1369 -103.8564 86° East 469 540 37,000  Level Albuquerque Center
Thu 03:04:16 PM 35.1469 -103.6964 86° East 470 541 37,000  Level Albuquerque Center
Thu 03:05:18 PM 35.1581 -103.5100 86° East 469 540 37,000  Level Albuquerque Center
Thu 03:06:20 PM 35.1681 -103.3497 86° East 469 540 37,000  Level Albuquerque Center
Thu 03:07:22 PM 35.1764 -103.1897 86° East 469 540 37,000  Level Albuquerque Center
Thu 03:08:24 PM 35.1856 -103.0303 86° East 468 539 37,000  Level Albuquerque Center
Thu 03:09:26 PM 35.1931 -102.8664 87° East 467 537 37,000  Level Albuquerque Center
Thu 03:10:28 PM 35.2014 -102.7075 86° East 469 540 37,000  Level Albuquerque Center
Thu 03:11:29 PM 35.2092 -102.5489 87° East 469 540 37,000  Level Albuquerque Center
Thu 03:12:31 PM 35.2172 -102.3906 86° East 468 539 37,000  Level Albuquerque Center
Thu 03:13:33 PM 35.2239 -102.2308 87° East 471 542 37,000  Level Albuquerque Center
Thu 03:14:35 PM 35.2336 -102.0397 86° East 471 542 37,000  Level Albuquerque Center
Thu 03:15:37 PM 35.2425 -101.8797 86° East 472 543 37,000  Level Albuquerque Center
Thu 03:16:39 PM 35.2508 -101.7194 86° East 470 541 37,000  Level Albuquerque Center
Thu 03:17:41 PM 35.2581 -101.5572 87° East 470 541 37,000  Level Albuquerque Center
Thu 03:18:43 PM 35.2642 -101.3981 87° East 469 540 37,000  Level Albuquerque Center
Thu 03:19:44 PM 35.2706 -101.2286 87° East 470 541 37,000  Level Albuquerque Center
Thu 03:20:46 PM 35.2767 -101.0700 87° East 469 540 37,000  Level Albuquerque Center
Thu 03:21:48 PM 35.2833 -100.9125 87° East 467 537 37,000  Level Albuquerque Center
Thu 03:22:50 PM 35.2886 -100.7544 88° East 466 536 37,000  Level Albuquerque Center
Thu 03:23:52 PM 35.2947 -100.5733 88° East 464 534 37,000  Level Albuquerque Center
Thu 03:24:54 PM 35.2997 -100.4153 88° East 464 534 37,000  Level Albuquerque Center
Thu 03:25:56 PM 35.3033 -100.2578 88° East 464 534 37,000  Level Albuquerque Center
Thu 03:26:58 PM 35.3092 -100.1003 87° East 464 534 37,000  Level Albuquerque Center
Thu 03:28:00 PM 35.3133 -99.9453 88° East 460 529 37,000  Level Albuquerque Center
Thu 03:29:02 PM 35.3178 -99.7897 88° East 458 527 37,000  Level Albuquerque Center
Thu 03:30:04 PM 35.3236 -99.6047 88° East 456 525 37,000  Level Albuquerque Center
Thu 03:31:06 PM 35.3278 -99.4522 88° East 452 520 37,000  Level Albuquerque Center
Thu 03:32:10 PM 35.3294 -99.2939 89° East 456 525 37,000  Level Fort Worth Center
Thu 03:33:10 PM 35.3317 -99.1389 89° East 456 525 37,000  Level Fort Worth Center
Thu 03:34:10 PM 35.3358 -98.9861 88° East 456 525 37,000  Level Fort Worth Center
Thu 03:35:10 PM 35.3397 -98.8311 88° East 456 525 37,000 400 Level Fort Worth Center
Thu 03:36:10 PM 35.3414 -98.6758 89° East 456 525 37,800 800 Climbing Fort Worth Center
Thu 03:37:10 PM 35.3469 -98.5206 87° East 456 525 38,600 600 Climbing Fort Worth Center
Thu 03:38:10 PM 35.3483 -98.3503 89° East 456 525 39,000 200 Climbing Fort Worth Center
Thu 03:39:10 PM 35.3517 -98.1900 88° East 461 531 39,000  Level Fort Worth Center
Thu 03:40:10 PM 35.3547 -98.0294 89° East 461 531 39,000  Level Fort Worth Center
Thu 03:41:10 PM 35.3553 -97.8742 90° East 461 531 39,000  Level Fort Worth Center
Thu 03:42:10 PM 35.3558 -97.7189 90° East 456 525 39,000  Level Fort Worth Center
Thu 03:43:10 PM 35.3581 -97.5664 89° East 456 525 39,000  Level Fort Worth Center
Thu 03:44:10 PM 35.3644 -97.4161 87° East 464 534 39,000  Level Fort Worth Center
Thu 03:45:10 PM 35.3706 -97.2583 87° East 470 541 39,000  Level Fort Worth Center
Thu 03:46:10 PM 35.3661 -97.1006 92° East 465 535 39,000  Level Fort Worth Center
Thu 03:47:10 PM 35.3658 -96.9453 90° East 459 528 39,000  Level Fort Worth Center
Thu 03:48:10 PM 35.3631 -96.7900 91° East 459 528 39,000  Level Fort Worth Center
Thu 03:49:10 PM 35.3600 -96.6347 91° East 459 528 39,000  Level Fort Worth Center
Thu 03:50:10 PM 35.3547 -96.4794 92° East 459 528 39,000  Level Fort Worth Center
Thu 03:51:10 PM 35.3514 -96.3242 91° East 459 528 39,000  Level Fort Worth Center
Thu 03:52:10 PM 35.3481 -96.1689 91° East 459 528 39,000  Level Fort Worth Center
Thu 03:53:10 PM 35.3400 -96.0114 94° East 459 528 39,000  Level Fort Worth Center
Thu 03:54:10 PM 35.3381 -95.8433 91° East 459 528 39,000  Level Fort Worth Center
Thu 03:55:10 PM 35.3339 -95.6858 92° East 454 522 39,000  Level Fort Worth Center
Thu 03:56:56 PM 35.3242 -95.4111 92° East 453 521 39,000  Level Memphis Center
Thu 03:57:56 PM 35.3183 -95.2478 92° East 464 534 39,000  Level Memphis Center
Thu 03:58:56 PM 35.3119 -95.0847 93° East 469 540 39,000  Level Memphis Center
Thu 03:59:56 PM 35.3033 -94.9239 94° East 469 540 39,000  Level Memphis Center
Thu 04:00:56 PM 35.2967 -94.7606 93° East 475 547 39,000  Level Memphis Center
Thu 04:01:56 PM 35.2894 -94.6103 93° East 486 559 39,000  Level Memphis Center
Thu 04:02:56 PM 35.2867 -94.4497 91° East 480 552 39,000  Level Memphis Center
Thu 04:03:56 PM 35.2814 -94.2894 92° East 475 547 39,000  Level Memphis Center
Thu 04:04:56 PM 35.2736 -94.1339 93° East 470 541 39,000  Level Memphis Center
Thu 04:05:56 PM 35.2658 -93.9733 93° East 470 541 39,000  Level Memphis Center
Thu 04:06:56 PM 35.2558 -93.8128 94° East 470 541 39,000  Level Memphis Center
Thu 04:07:56 PM 35.2497 -93.6522 93° East 470 541 39,000  Level Memphis Center
Thu 04:08:56 PM 35.2417 -93.4739 93° East 475 547 39,000  Level Memphis Center
Thu 04:09:56 PM 35.2331 -93.3161 94° East 475 547 39,000  Level Memphis Center
Thu 04:10:56 PM 35.2264 -93.1531 93° East 475 547 39,000  Level Memphis Center
Thu 04:11:56 PM 35.2175 -92.9903 94° East 475 547 39,000  Level Memphis Center
Thu 04:12:56 PM 35.2103 -92.8300 93° East 480 552 39,000  Level Memphis Center
Thu 04:13:56 PM 35.1969 -92.6592 95° East 486 559 39,000  Level Memphis Center
Thu 04:14:56 PM 35.1872 -92.5014 94° East 480 552 39,000  Level Memphis Center
Thu 04:15:56 PM 35.1794 -92.3436 93° East 475 547 39,000  Level Memphis Center
Thu 04:16:56 PM 35.1672 -92.1833 95° East 475 547 39,000  Level Memphis Center
Thu 04:17:56 PM 35.1589 -92.0258 94° East 475 547 39,000  Level Memphis Center
Thu 04:18:56 PM 35.1486 -91.8606 94° East 475 547 39,000  Level Memphis Center
Thu 04:19:56 PM 35.1400 -91.7028 94° East 475 547 39,000  Level Memphis Center
Thu 04:20:56 PM 35.1311 -91.5378 94° East 480 552 39,000  Level Memphis Center
Thu 04:21:56 PM 35.1181 -91.3800 96° East 480 552 39,000  Level Memphis Center
Thu 04:22:56 PM 35.1108 -91.2228 93° East 475 547 39,000  Level Memphis Center
Thu 04:23:56 PM 35.0972 -91.0653 96° East 475 547 39,000  Level Memphis Center
Thu 04:24:56 PM 35.0856 -90.9028 95° East 475 547 39,000  Level Memphis Center
Thu 04:25:56 PM 35.0736 -90.7428 95° East 475 547 39,000  Level Memphis Center
Thu 04:26:56 PM 35.0636 -90.5828 94° East 475 547 39,000  Level Memphis Center
Thu 04:27:56 PM 35.0511 -90.4231 95° East 475 547 39,000  Level Memphis Center
Thu 04:28:56 PM 35.0408 -90.2758 95° East 475 547 39,000  Level Memphis Center
Thu 04:29:56 PM 35.0281 -90.1136 95° East 480 552 39,000  Level Memphis Center
Thu 04:30:56 PM 35.0150 -89.9514 96° East 480 552 39,000  Level Memphis Center
Thu 04:31:56 PM 34.9914 -89.7717 99° East 480 552 39,000  Level Memphis Center
Thu 04:32:56 PM 34.9633 -89.6019 101° East 499 574 39,000  Level Memphis Center
Thu 04:33:56 PM 34.9372 -89.4428 101° East 486 559 39,000  Level Memphis Center
Thu 04:34:56 PM 34.9131 -89.2858 101° East 481 554 39,000  Level Memphis Center
Thu 04:35:56 PM 34.8886 -89.1292 101° East 469 540 39,000  Level Memphis Center
Thu 04:36:56 PM 34.8661 -88.9853 101° East 469 540 39,000  Level Memphis Center
Thu 04:37:56 PM 34.8436 -88.8286 100° East 469 540 39,000  Level Memphis Center
Thu 04:38:56 PM 34.8186 -88.6697 101° East 469 540 39,000 -150 Level Memphis Center
Thu 04:39:56 PM 34.7933 -88.5086 101° East 476 548 38,700 -650 Descending Memphis Center
Thu 04:40:56 PM 34.7681 -88.3600 102° East 471 542 37,700 -950 Descending Memphis Center
Thu 04:41:56 PM 34.7444 -88.1986 100° East 471 542 36,800 -1,000 Descending Memphis Center
Thu 04:42:56 PM 34.7139 -88.0175 102° East 483 556 35,700 -1,000 Descending Memphis Center
Thu 04:43:56 PM 34.6900 -87.8567 100° East 483 556 34,800 -900 Descending Memphis Center
Thu 04:45:56 PM 34.6414 -87.5583 101° East 498 573 33,000 -600 Descending Atlanta Center
Thu 04:46:56 PM 34.6147 -87.3956 101° East 493 567 33,000  Level Atlanta Center
Thu 04:47:56 PM 34.5797 -87.2203 104° East 488 562 33,000  Level Atlanta Center
Thu 04:48:56 PM 34.5483 -87.0600 103° East 488 562 33,000 -50 Level Atlanta Center
Thu 04:49:56 PM 34.5186 -86.9003 103° East 488 562 32,900 -550 Descending Atlanta Center
Thu 04:50:56 PM 34.4867 -86.7403 104° East 488 562 31,900 -1,050 Descending Atlanta Center
Thu 04:51:56 PM 34.4567 -86.5806 103° East 488 562 30,800 -1,050 Descending Atlanta Center
Thu 04:52:56 PM 34.4264 -86.4261 103° East 488 562 29,800 -1,000 Descending Atlanta Center
Thu 04:53:56 PM 34.3961 -86.2717 103° East 477 549 28,800 -1,050 Descending Atlanta Center
Thu 04:54:56 PM 34.3672 -86.1225 103° East 466 536 27,700 -1,050 Descending Atlanta Center
Thu 04:55:56 PM 34.3364 -85.9783 104° East 452 520 26,700 -1,000 Descending Atlanta Center
Thu 04:56:56 PM 34.3092 -85.8369 103° East 441 507 25,700 -1,000 Descending Atlanta Center
Thu 04:57:56 PM 34.2839 -85.7156 104° East 428 493 24,700 -1,300 Descending Atlanta Center
Thu 04:58:56 PM 34.2583 -85.5794 103° East 417 480 23,100 -1,800 Descending Atlanta Center
Thu 04:59:56 PM 34.2308 -85.4458 104° East 412 474 21,100 -2,050 Descending Atlanta Center
Thu 05:00:56 PM 34.2031 -85.3097 104° East 412 474 19,000 -2,050 Descending Atlanta Center
Thu 05:01:56 PM 34.1731 -85.1686 104° East 406 467 17,000 -2,150 Descending Atlanta Center
Thu 05:02:56 PM 34.1156 -85.0575 122° Southeast 397 457 14,700 -1,500 Descending Atlanta Center
Thu 05:03:56 PM 34.0411 -84.9639 134° Southeast 384 442 14,000 -1,300 Descending Atlanta Center
Thu 05:04:56 PM 33.9667 -84.8678 133° Southeast 384 442 12,100 -1,000 Descending Atlanta Center
Thu 05:05:56 PM 33.8964 -84.7797 134° Southeast 379 436 12,000 -50 Descending Atlanta Center
Thu 05:06:56 PM 33.8258 -84.6914 134° Southeast 379 436 12,000  Level Atlanta Center
Thu 05:07:56 PM 33.7700 -84.6161 132° Southeast 333 383 12,000  Level Atlanta Center
Thu 05:08:11 PM 33.7500 -84.6000 146° Southeast 267 307 12,000 -957 Level Atlanta TRACON
Thu 05:09:05 PM 33.7333 -84.5333 107° East 274 315 10,900 -1,211 Descending Atlanta TRACON
Thu 05:10:05 PM 33.7333 -84.4500 90° East 266 306 9,700 -1,500 Descending Atlanta TRACON
Thu 05:11:05 PM 33.7333 -84.3500 90° East 260 299 7,900 -1,900 Descending Atlanta TRACON
Thu 05:12:05 PM 33.7333 -84.2833 90° East 240 276 5,900 -1,950 Descending Atlanta TRACON
Thu 05:13:05 PM 33.6833 -84.2500 151° Southeast 223 257 4,000 -1,650 Descending Atlanta TRACON
Thu 05:14:05 PM 33.6500 -84.3167 239° Southwest 203 234 2,600 -1,150 Descending Atlanta TRACON
Thu 05:15:05 PM 33.6500 -84.3667 270° West 155 178 1,700 -900 Descending Atlanta TRACON
Thu 05:17:00 PM 33.6333 -84.4167 257° West  Level FlightAware Approximate
Thu 05:24:00 PM 33.6367 -84.4279 257° West  Level Estimated

Login

Don't have an account? Register now (free) for customized features, flight alerts, and more!